Time;durP1;ratioP1;P1;durP2;ratioP2;P2;SDS_P1;SDS_P2;PMS_P1;PMS_P2;Temp;Humidity;BMP_temperature;BMP_pressure;BME280_temperature;BME280_humidity;BME280_pressure;Samples;Min_cycle;Max_cycle;Signal;HPM_P1;HPM_P2
2022/04/29 00:01:18;;;;;;;14.57;6.47;;;;;;;8.48;73.28;102906.94;5057364;28;20545;-66
2022/04/29 00:03:44;;;;;;;17.17;6.13;;;;;;;8.46;73.25;102907.94;5059079;28;20534;-66
2022/04/29 00:06:10;;;;;;;15.40;6.55;;;;;;;8.44;73.96;102902.56;5070136;28;20073;-67
2022/04/29 00:08:36;;;;;;;14.63;6.30;;;;;;;8.39;73.73;102902.69;5068909;28;20037;-67
2022/04/29 00:11:01;;;;;;;13.57;6.47;;;;;;;8.34;74.16;102903.72;5068811;28;20032;-67
2022/04/29 00:13:27;;;;;;;12.65;5.93;;;;;;;8.30;74.11;102902.94;5066347;28;20032;-74
2022/04/29 00:15:52;;;;;;;15.15;6.00;;;;;;;8.26;74.11;102895.84;5050262;28;20080;-67
2022/04/29 00:18:17;;;;;;;14.05;6.22;;;;;;;8.25;73.72;102898.56;5056464;28;20040;-67
2022/04/29 00:20:43;;;;;;;13.68;6.03;;;;;;;8.22;74.45;102899.56;5069629;28;20395;-74
2022/04/29 00:23:09;;;;;;;10.02;6.47;;;;;;;8.20;74.35;102906.84;5070255;28;20186;-67
2022/04/29 00:25:34;;;;;;;11.43;6.10;;;;;;;8.12;74.73;102898.94;5069513;28;20432;-74
2022/04/29 00:28:00;;;;;;;13.20;6.95;;;;;;;8.07;74.39;102894.59;5066904;28;20060;-73
2022/04/29 00:30:26;;;;;;;10.73;6.20;;;;;;;8.05;74.28;102893.75;5037636;28;20171;-68
2022/04/29 00:32:52;;;;;;;11.93;6.05;;;;;;;8.04;74.97;102900.09;5058191;28;20033;-67
2022/04/29 00:35:17;;;;;;;12.20;6.30;;;;;;;7.99;75.15;102900.22;5038217;28;20032;-67
2022/04/29 00:37:45;;;;;;;10.55;5.43;;;;;;;7.93;75.01;102893.19;5068147;28;20108;-74
2022/04/29 00:40:17;;;;;;;15.02;6.40;;;;;;;7.91;74.27;102894.13;5067971;28;20053;-67
2022/04/29 00:42:45;;;;;;;13.38;6.43;;;;;;;7.86;75.17;102890.66;5064718;28;20039;-67
2022/04/29 00:45:12;;;;;;;9.82;6.10;;;;;;;7.82;75.44;102891.69;5057070;28;20063;-70
2022/04/29 00:47:37;;;;;;;14.10;5.93;;;;;;;7.78;75.44;102888.16;5067505;28;20029;-74
2022/04/29 00:50:04;;;;;;;11.60;5.95;;;;;;;7.75;75.53;102879.25;5068627;28;20091;-66
2022/04/29 00:52:30;;;;;;;11.25;6.25;;;;;;;7.71;75.40;102878.44;5069009;28;20498;-67
2022/04/29 00:55:01;;;;;;;12.02;6.07;;;;;;;7.67;75.14;102877.63;5070077;28;20048;-70
2022/04/29 00:57:44;;;;;;;10.50;5.85;;;;;;;7.68;75.19;102876.69;5066359;28;20032;-75
2022/04/29 01:00:14;;;;;;;11.05;6.20;;;;;;;7.65;75.52;102884.03;5066428;28;20470;-74
2022/04/29 01:02:41;;;;;;;14.35;6.47;;;;;;;7.62;75.60;102876.00;5068472;28;20032;-66
2022/04/29 01:05:10;;;;;;;9.95;5.25;;;;;;;7.57;75.96;102886.94;5066482;28;20029;-74
2022/04/29 01:07:36;;;;;;;11.15;5.95;;;;;;;7.55;75.88;102885.19;5049048;28;20036;-73
2022/04/29 01:10:04;;;;;;;15.93;7.13;;;;;;;7.53;75.66;102879.84;5068573;28;20036;-74
2022/04/29 01:12:33;;;;;;;15.43;6.00;;;;;;;7.49;76.03;102872.72;5070140;28;20439;-66
2022/04/29 01:15:04;;;;;;;11.57;5.65;;;;;;;7.43;76.09;102872.88;5062829;28;20057;-73
2022/04/29 01:17:30;;;;;;;15.38;7.65;;;;;;;7.41;76.34;102872.03;5047592;28;20032;-74
2022/04/29 01:20:00;;;;;;;18.23;6.95;;;;;;;7.38;76.88;102870.31;5053594;28;20119;-67
2022/04/29 01:22:25;;;;;;;13.48;6.25;;;;;;;7.36;76.72;102861.31;5079132;28;20485;-66
2022/04/29 01:24:51;;;;;;;10.65;6.32;;;;;;;7.34;76.52;102862.31;5055418;28;20048;-74
2022/04/29 01:27:17;;;;;;;12.77;6.15;;;;;;;7.28;76.78;102854.34;5052851;28;20068;-73
2022/04/29 01:29:45;;;;;;;10.10;5.95;;;;;;;7.25;76.71;102852.59;5059114;28;20055;-74
2022/04/29 01:32:11;;;;;;;12.32;5.95;;;;;;;7.21;77.59;102847.31;5066123;28;20071;-70
2022/04/29 01:34:38;;;;;;;18.48;7.20;;;;;;;7.18;76.93;102842.88;5064727;28;20033;-67
2022/04/29 01:37:06;;;;;;;15.95;6.65;;;;;;;7.13;77.27;102840.28;5067402;28;20049;-73
2022/04/29 01:39:32;;;;;;;15.73;6.63;;;;;;;7.09;77.12;102843.13;5068194;28;20464;-74
2022/04/29 01:41:57;;;;;;;10.77;5.90;;;;;;;7.08;77.29;102844.03;5066600;28;20107;-68
2022/04/29 01:44:23;;;;;;;17.55;6.38;;;;;;;7.02;77.26;102839.66;5067341;28;20119;-74
2022/04/29 01:46:48;;;;;;;8.93;5.72;;;;;;;7.00;77.47;102848.78;5062787;28;20372;-74
2022/04/29 01:49:34;;;;;;;16.23;5.95;;;;;;;6.99;77.86;102845.16;5057454;28;20127;-73
2022/04/29 01:52:03;;;;;;;11.70;6.03;;;;;;;6.96;77.57;102842.53;5068454;28;20389;-74
2022/04/29 01:54:28;;;;;;;14.50;6.20;;;;;;;6.93;77.77;102831.78;5050620;28;20518;-67
2022/04/29 01:56:54;;;;;;;12.82;7.93;;;;;;;6.93;77.37;102836.31;5070877;28;20036;-67
2022/04/29 01:59:20;;;;;;;15.38;6.65;;;;;;;6.92;77.35;102838.13;5070774;28;20032;-73
2022/04/29 02:02:11;;;;;;;18.30;6.55;;;;;;;6.88;77.36;102837.31;5067414;28;20047;-67
2022/04/29 02:04:37;;;;;;;11.68;5.65;;;;;;;6.88;77.50;102840.00;5074349;28;20396;-73
2022/04/29 02:07:04;;;;;;;11.25;5.75;;;;;;;6.87;77.83;102838.25;5072299;28;20091;-74
2022/04/29 02:09:32;;;;;;;11.60;6.50;;;;;;;6.85;77.95;102847.31;5073846;28;20036;-67
2022/04/29 02:12:06;;;;;;;9.93;6.00;;;;;;;6.81;77.79;102846.53;5074765;28;20445;-74
2022/04/29 02:15:07;;;;;;;13.95;5.75;;;;;;;6.78;76.91;102837.59;5021653;28;20060;-74
2022/04/29 02:17:37;;;;;;;11.65;5.95;;;;;;;6.75;77.95;102837.66;5059299;28;20542;-67
2022/04/29 02:20:03;;;;;;;18.52;6.88;;;;;;;6.74;78.09;102835.88;5073528;28;20056;-75
2022/04/29 02:22:29;;;;;;;16.67;7.45;;;;;;;6.71;78.48;102836.81;5070537;28;20029;-68
2022/04/29 02:24:54;;;;;;;13.07;7.20;;;;;;;6.67;78.59;102834.22;5057796;28;20063;-73
2022/04/29 02:27:20;;;;;;;16.00;6.80;;;;;;;6.68;78.43;102836.91;5087226;28;20046;-66
2022/04/29 02:29:46;;;;;;;19.08;6.97;;;;;;;6.68;78.41;102839.63;5071391;28;20123;-73
2022/04/29 02:32:13;;;;;;;12.80;6.57;;;;;;;6.68;78.60;102836.03;5055906;28;20045;-68
2022/04/29 02:34:40;;;;;;;14.85;6.40;;;;;;;6.65;78.51;102827.06;5057777;28;20139;-75
2022/04/29 02:37:06;;;;;;;10.88;6.00;;;;;;;6.63;78.58;102828.03;5058578;28;20063;-74
2022/04/29 02:39:31;;;;;;;14.57;7.05;;;;;;;6.60;78.70;102830.81;5056118;28;20451;-67
2022/04/29 02:41:57;;;;;;;14.00;6.78;;;;;;;6.56;78.72;102824.56;5096634;28;20019;-66
2022/04/29 02:44:23;;;;;;;12.88;6.30;;;;;;;6.57;78.81;102822.75;5079422;28;20083;-66
2022/04/29 02:47:07;;;;;;;13.88;6.28;;;;;;;6.53;78.92;102823.78;5049263;28;20558;-72
2022/04/29 02:49:32;;;;;;;11.95;6.53;;;;;;;6.50;78.64;102824.72;5064350;28;20481;-74
2022/04/29 02:51:57;;;;;;;11.50;6.75;;;;;;;6.46;78.79;102825.72;5055606;28;20048;-74
2022/04/29 02:54:23;;;;;;;12.63;6.78;;;;;;;6.44;79.23;102824.88;5084950;28;20053;-66
2022/04/29 02:56:51;;;;;;;13.23;6.38;;;;;;;6.44;79.24;102826.69;5074493;28;20089;-67
2022/04/29 02:59:31;;;;;;;16.80;7.25;;;;;;;6.42;79.15;102820.41;5071320;28;20495;-71
2022/04/29 03:01:57;;;;;;;13.68;7.20;;;;;;;6.43;79.25;102822.19;5045646;28;20517;-73
2022/04/29 03:04:22;;;;;;;13.07;7.28;;;;;;;6.41;79.59;102818.66;5072192;28;20112;-67
2022/04/29 03:06:48;;;;;;;14.07;7.05;;;;;;;6.39;79.34;102814.16;5074257;28;20036;-67
2022/04/29 03:09:14;;;;;;;17.13;7.95;;;;;;;6.38;79.49;102812.38;5052254;28;20478;-73
2022/04/29 03:11:40;;;;;;;13.55;6.28;;;;;;;6.39;79.15;102810.59;5071407;28;20050;-67
2022/04/29 03:14:06;;;;;;;12.23;6.35;;;;;;;6.38;79.64;102801.56;5058899;28;20120;-67
2022/04/29 03:16:32;;;;;;;11.27;6.88;;;;;;;6.39;79.08;102799.78;5056490;28;20016;-74
2022/04/29 03:18:57;;;;;;;15.45;7.75;;;;;;;6.35;79.84;102795.34;5068680;28;20040;-67
2022/04/29 03:21:23;;;;;;;14.93;6.90;;;;;;;6.34;79.75;102799.88;5072300;28;20031;-75
2022/04/29 03:23:49;;;;;;;19.10;6.75;;;;;;;6.31;79.81;102785.53;5070609;28;20035;-73
2022/04/29 03:26:15;;;;;;;21.30;7.47;;;;;;;6.33;79.95;102792.66;5069951;28;20029;-69
2022/04/29 03:28:42;;;;;;;13.10;7.80;;;;;;;6.32;79.78;102788.19;5070677;28;20116;-73
2022/04/29 03:31:08;;;;;;;17.75;7.95;;;;;;;6.28;79.96;102796.41;5068662;28;20111;-67
2022/04/29 03:33:51;;;;;;;16.63;7.75;;;;;;;6.27;80.03;102809.03;5057882;28;20577;-73
2022/04/29 03:36:17;;;;;;;21.52;6.95;;;;;;;6.24;80.56;102803.69;5065282;28;20037;-67
2022/04/29 03:38:50;;;;;;;16.85;7.97;;;;;;;6.24;79.99;102803.69;5069538;28;20593;-73
2022/04/29 03:41:16;;;;;;;15.27;7.78;;;;;;;6.26;79.80;102815.38;5070609;28;20066;-67
2022/04/29 03:43:41;;;;;;;15.82;8.05;;;;;;;6.23;80.90;102807.31;5069351;28;20021;-70
2022/04/29 03:46:11;;;;;;;16.10;6.78;;;;;;;6.26;78.78;102811.78;5068795;28;20032;-72
2022/04/29 03:51:47;;;;;;;14.50;7.38;;;;;;;6.22;79.56;102796.56;5070249;28;20123;-75
2022/04/29 03:54:12;;;;;;;16.30;8.23;;;;;;;6.20;80.35;102792.97;5070068;28;20443;-73
2022/04/29 03:56:42;;;;;;;16.98;8.45;;;;;;;6.18;80.41;102795.72;5054141;28;20024;-66
2022/04/29 03:59:07;;;;;;;15.23;7.75;;;;;;;6.19;80.20;102786.69;5068072;28;20032;-68
2022/04/29 04:01:34;;;;;;;18.80;7.93;;;;;;;6.18;80.35;102794.84;5079675;28;20039;-67
2022/04/29 04:04:04;;;;;;;13.18;7.47;;;;;;;6.18;79.26;102797.53;5067541;28;20025;-73
2022/04/29 04:09:13;;;;;;;17.85;7.32;;;;;;;6.24;79.79;102802.81;5069209;28;20036;-71
2022/04/29 04:11:39;;;;;;;16.10;7.85;;;;;;;6.22;80.17;102797.44;5058264;28;20078;-67
2022/04/29 04:14:08;;;;;;;15.15;7.47;;;;;;;6.21;80.85;102800.19;5068954;28;20408;-73
2022/04/29 04:16:44;;;;;;;17.60;7.68;;;;;;;6.22;79.75;102794.75;5066918;28;20028;-73
2022/04/29 04:19:10;;;;;;;18.52;8.38;;;;;;;6.21;80.18;102792.97;5068123;28;20085;-74
2022/04/29 04:21:36;;;;;;;18.50;8.65;;;;;;;6.19;80.12;102785.81;5070008;28;20068;-67
2022/04/29 04:24:04;;;;;;;18.00;8.90;;;;;;;6.17;80.46;102785.84;5068540;28;20025;-67
2022/04/29 04:26:29;;;;;;;14.35;7.45;;;;;;;6.18;79.36;102787.63;5069671;28;20024;-67
2022/04/29 04:28:59;;;;;;;17.40;7.53;;;;;;;6.25;78.74;102791.06;5069213;28;20123;-74
2022/04/29 04:31:31;;;;;;;17.13;8.38;;;;;;;6.28;79.19;102781.06;5068252;28;20025;-75
2022/04/29 04:33:57;;;;;;;17.35;7.85;;;;;;;6.28;78.98;102791.88;5067378;28;20037;-67
2022/04/29 04:36:22;;;;;;;20.25;9.82;;;;;;;6.29;79.38;102793.66;5056404;28;20028;-66
2022/04/29 04:38:48;;;;;;;15.10;7.80;;;;;;;6.26;79.47;102788.34;5068907;28;20060;-74
2022/04/29 04:41:18;;;;;;;17.25;8.18;;;;;;;6.20;79.12;102779.47;5069306;28;20123;-74
2022/04/29 04:43:44;;;;;;;14.35;7.68;;;;;;;6.25;79.04;102785.66;5042518;28;20024;-73
2022/04/29 04:46:12;;;;;;;18.10;7.80;;;;;;;6.27;79.33;102783.81;5062263;28;20032;-70
2022/04/29 04:48:41;;;;;;;14.57;7.32;;;;;;;6.28;79.08;102791.88;5058425;28;20021;-74
2022/04/29 04:51:25;;;;;;;18.40;8.20;;;;;;;6.31;79.56;102790.94;5070411;28;20055;-73
2022/04/29 04:53:59;;;;;;;18.13;9.10;;;;;;;6.29;79.30;102787.38;5057567;28;20467;-72
2022/04/29 04:56:26;;;;;;;20.02;8.23;;;;;;;6.26;79.25;102772.13;5058213;28;20033;-75
2022/04/29 04:58:52;;;;;;;19.15;8.60;;;;;;;6.30;80.08;102783.75;5065187;28;20046;-74
2022/04/29 05:01:18;;;;;;;18.30;8.40;;;;;;;6.31;78.89;102777.44;5066198;28;20047;-73
2022/04/29 05:04:02;;;;;;;19.00;9.05;;;;;;;6.31;79.81;102780.13;5057601;28;20044;-75
2022/04/29 05:06:46;;;;;;;18.05;8.52;;;;;;;6.37;78.74;102788.09;5068035;28;20082;-73
2022/04/29 05:09:13;;;;;;;23.73;9.32;;;;;;;6.35;79.91;102784.53;5059156;28;20037;-74
2022/04/29 05:11:38;;;;;;;17.33;8.23;;;;;;;6.33;79.48;102780.97;5067955;28;20475;-66
2022/04/29 05:14:06;;;;;;;14.95;8.73;;;;;;;6.37;78.96;102788.09;5065565;28;20044;-73
2022/04/29 05:16:36;;;;;;;27.65;11.13;;;;;;;6.41;79.32;102791.59;5070545;28;20033;-73
2022/04/29 05:19:22;;;;;;;23.30;8.98;;;;;;;6.43;79.53;102785.22;5059242;28;20048;-67
2022/04/29 05:21:47;;;;;;;20.77;8.98;;;;;;;6.41;79.50;102786.19;5066438;28;20039;-73
2022/04/29 05:24:13;;;;;;;16.70;9.15;;;;;;;6.38;79.31;102790.75;5065451;28;20313;-67
2022/04/29 05:27:01;;;;;;;20.48;8.40;;;;;;;6.42;79.40;102790.69;5069446;28;20216;-66
2022/04/29 05:29:41;;;;;;;19.38;9.73;;;;;;;6.42;79.43;102793.38;5065493;28;20044;-68
2022/04/29 05:32:32;;;;;;;20.23;7.88;;;;;;;6.43;79.06;102795.16;5042411;28;20090;-66
2022/04/29 05:35:16;;;;;;;22.20;8.88;;;;;;;6.43;79.14;102792.44;5062471;28;20442;-73
2022/04/29 05:38:04;;;;;;;26.38;10.07;;;;;;;6.42;79.96;102799.66;5069401;28;20129;-73
2022/04/29 05:43:14;;;;;;;23.48;9.75;;;;;;;6.42;80.11;102790.69;5066717;28;20086;-67
2022/04/29 05:45:39;;;;;;;21.23;10.32;;;;;;;6.39;80.91;102789.84;5063053;28;20506;-67
2022/04/29 05:48:05;;;;;;;23.27;10.23;;;;;;;6.42;80.46;102790.69;5063469;28;20085;-67
2022/04/29 05:50:32;;;;;;;19.38;9.95;;;;;;;6.45;80.13;102796.03;5060685;28;20082;-75
2022/04/29 05:52:57;;;;;;;24.42;9.18;;;;;;;6.48;79.79;102796.84;5067360;28;20056;-73
2022/04/29 05:55:24;;;;;;;19.25;9.05;;;;;;;6.55;79.29;102801.16;5037727;28;20052;-73
2022/04/29 05:57:52;;;;;;;20.08;9.90;;;;;;;6.62;79.41;102804.59;5049051;28;20051;-66
2022/04/29 06:00:19;;;;;;;17.50;8.95;;;;;;;6.60;79.33;102806.47;5059166;28;20028;-74
2022/04/29 06:02:55;;;;;;;17.90;9.73;;;;;;;6.70;78.87;102804.41;5059568;28;20445;-66
2022/04/29 06:05:22;;;;;;;22.75;10.38;;;;;;;6.74;78.97;102806.13;5043556;28;20035;-73
2022/04/29 06:07:49;;;;;;;20.35;9.27;;;;;;;6.83;79.00;102809.47;5079813;28;20031;-67
2022/04/29 06:10:32;;;;;;;25.77;10.30;;;;;;;6.92;78.62;102811.06;5066952;28;20123;-73
2022/04/29 06:12:58;;;;;;;22.20;9.77;;;;;;;6.94;78.51;102817.31;5067884;28;20116;-74
2022/04/29 06:15:30;;;;;;;20.65;10.18;;;;;;;6.93;78.89;102810.13;5065885;28;20057;-73
2022/04/29 06:18:13;;;;;;;23.00;10.38;;;;;;;6.99;78.65;102811.78;5062712;28;20569;-73
2022/04/29 06:20:54;;;;;;;25.27;10.82;;;;;;;6.98;78.34;102810.91;5060096;28;20048;-67
2022/04/29 06:23:31;;;;;;;25.95;9.95;;;;;;;6.97;78.59;102811.84;5054213;28;20067;-74
2022/04/29 06:25:58;;;;;;;24.58;9.80;;;;;;;7.02;78.42;102822.53;5051473;28;20037;-66
2022/04/29 06:28:27;;;;;;;18.65;9.23;;;;;;;7.09;78.36;102822.34;5065674;28;20028;-68
2022/04/29 06:30:52;;;;;;;21.38;9.95;;;;;;;7.17;77.21;102822.13;5062709;28;20040;-67
2022/04/29 06:33:40;;;;;;;19.60;9.60;;;;;;;7.16;77.30;102825.78;5059873;28;20104;-71
2022/04/29 06:36:09;;;;;;;22.20;10.00;;;;;;;7.20;77.36;102822.06;5078418;28;20080;-73
2022/04/29 06:38:35;;;;;;;26.85;11.00;;;;;;;7.20;77.30;102826.59;5065498;28;20036;-73
2022/04/29 06:41:19;;;;;;;33.10;10.13;;;;;;;7.22;77.57;102830.13;5057171;28;20744;-68
2022/04/29 06:43:57;;;;;;;21.13;8.98;;;;;;;7.26;77.44;102821.00;5051617;28;20469;-66
2022/04/29 06:46:40;;;;;;;24.13;10.30;;;;;;;7.31;76.90;102830.78;5068684;28;20048;-73
2022/04/29 06:49:31;;;;;;;19.15;10.57;;;;;;;7.37;77.89;102822.50;5060372;28;20097;-68
2022/04/29 06:52:15;;;;;;;26.60;10.15;;;;;;;7.41;76.63;102824.19;5072647;28;20050;-66
2022/04/29 06:54:51;;;;;;;31.40;10.60;;;;;;;7.57;76.71;102826.47;5067641;28;20029;-74
2022/04/29 06:57:16;;;;;;;23.40;10.90;;;;;;;7.77;77.14;102836.75;5051505;28;20037;-73
2022/04/29 06:59:41;;;;;;;25.35;10.13;;;;;;;7.83;75.66;102831.13;5064972;28;20024;-73
2022/04/29 07:02:07;;;;;;;16.92;9.35;;;;;;;7.87;75.74;102839.13;5068604;28;20098;-68
2022/04/29 07:04:32;;;;;;;21.08;9.80;;;;;;;7.93;75.43;102836.25;5059629;28;20369;-74
2022/04/29 07:06:59;;;;;;;25.00;10.30;;;;;;;7.95;75.47;102840.75;5044526;28;20043;-67
2022/04/29 07:09:25;;;;;;;22.17;10.65;;;;;;;7.98;75.83;102838.84;5070674;28;20020;-73
2022/04/29 07:12:16;;;;;;;17.55;10.15;;;;;;;8.09;75.23;102835.78;5041088;28;20127;-71
2022/04/29 07:14:51;;;;;;;23.70;10.23;;;;;;;8.10;74.64;102838.44;5052271;28;20492;-72
2022/04/29 07:17:17;;;;;;;23.63;10.82;;;;;;;8.09;75.08;102836.69;5056355;28;21689;-73
2022/04/29 07:19:43;;;;;;;20.38;10.18;;;;;;;8.09;74.84;102839.38;5062981;28;20024;-72
2022/04/29 07:22:08;;;;;;;23.40;10.45;;;;;;;8.17;74.68;102839.16;5068823;28;20029;-73
2022/04/29 07:24:41;;;;;;;21.17;10.02;;;;;;;8.23;74.23;102829.94;5054796;28;20086;-66
2022/04/29 07:27:06;;;;;;;28.63;10.57;;;;;;;8.23;74.54;102828.13;5072519;28;20036;-73
2022/04/29 07:29:32;;;;;;;22.98;9.85;;;;;;;8.40;74.55;102830.34;5050347;28;20033;-66
2022/04/29 07:32:04;;;;;;;25.95;11.15;;;;;;;8.43;73.92;102830.25;5069659;28;20032;-72
2022/04/29 07:43:36;;;;;;;27.65;12.45;;;;;;;8.89;72.57;102826.91;5069580;28;20086;-73
2022/04/29 07:46:03;;;;;;;25.73;10.32;;;;;;;9.08;74.38;102819.03;5068086;28;20043;-67
2022/04/29 07:48:28;;;;;;;24.10;10.90;;;;;;;9.14;73.17;102824.28;5062115;28;20036;-72
2022/04/29 07:50:56;;;;;;;25.77;11.10;;;;;;;9.31;71.96;102831.81;5077583;28;20063;-73
2022/04/29 07:53:22;;;;;;;17.30;9.88;;;;;;;9.62;71.35;102828.00;5069893;28;20189;-72
2022/04/29 07:55:47;;;;;;;26.38;10.20;;;;;;;10.02;71.88;102832.81;5067638;28;20040;-72
2022/04/29 07:58:14;;;;;;;22.45;10.50;;;;;;;10.08;68.80;102827.16;5068812;28;20484;-67
2022/04/29 08:00:40;;;;;;;22.40;10.43;;;;;;;10.01;68.24;102819.28;5068739;28;20035;-73
2022/04/29 08:03:06;;;;;;;24.00;9.73;;;;;;;10.01;68.43;102827.44;5066338;28;20067;-67
2022/04/29 08:05:53;;;;;;;18.92;10.43;;;;;;;9.99;68.69;102830.25;5057595;28;20017;-72
2022/04/29 08:08:19;;;;;;;22.80;10.57;;;;;;;10.13;69.22;102829.72;5069804;28;20028;-67
2022/04/29 08:10:45;;;;;;;18.48;9.77;;;;;;;10.36;69.47;102831.56;5069022;28;20024;-72
2022/04/29 08:13:11;;;;;;;24.17;11.07;;;;;;;10.55;69.04;102839.88;5069897;28;20063;-72
2022/04/29 08:15:58;;;;;;;28.50;11.13;;;;;;;10.39;66.49;102840.47;5056671;28;20055;-73
2022/04/29 08:18:46;;;;;;;20.80;10.57;;;;;;;10.29;68.35;102830.00;5068028;28;20498;-73
2022/04/29 08:21:13;;;;;;;20.50;10.45;;;;;;;10.24;68.39;102830.19;5069089;28;20033;-66
2022/04/29 08:23:38;;;;;;;20.45;10.55;;;;;;;10.29;68.35;102830.00;5071699;28;20028;-72
2022/04/29 08:26:04;;;;;;;37.22;10.80;;;;;;;10.49;68.11;102835.53;5068238;28;20054;-66
2022/04/29 08:28:30;;;;;;;20.58;10.85;;;;;;;10.70;67.37;102842.84;5069428;28;20510;-67
2022/04/29 08:30:55;;;;;;;27.23;11.27;;;;;;;10.72;66.48;102838.25;5067578;28;20017;-66
2022/04/29 08:33:30;;;;;;;19.83;9.45;;;;;;;10.90;67.93;102839.28;5063499;28;20032;-65
2022/04/29 08:36:07;;;;;;;19.60;9.60;;;;;;;11.24;67.08;102844.22;5063213;28;20499;-67
2022/04/29 08:38:33;;;;;;;18.77;10.20;;;;;;;11.30;66.58;102850.34;5069138;28;20044;-73
2022/04/29 08:41:00;;;;;;;18.10;10.05;;;;;;;11.29;66.42;102843.13;5068642;28;20023;-72
2022/04/29 08:43:31;;;;;;;21.60;10.30;;;;;;;11.09;65.36;102850.28;5069106;28;20552;-67
2022/04/29 08:46:01;;;;;;;24.88;11.23;;;;;;;11.02;67.14;102835.19;5064015;28;20066;-66
2022/04/29 08:48:45;;;;;;;20.60;8.85;;;;;;;11.00;66.31;102847.97;5056795;28;20511;-66
2022/04/29 08:51:10;;;;;;;18.10;10.60;;;;;;;10.92;66.39;102826.50;5067524;28;20036;-71
2022/04/29 08:53:36;;;;;;;21.98;9.88;;;;;;;11.09;67.61;102825.78;5069168;28;20036;-66
2022/04/29 08:58:47;;;;;;;22.25;10.20;;;;;;;11.06;66.45;102830.50;5069543;28;20028;-72
2022/04/29 09:01:16;;;;;;;22.33;10.25;;;;;;;11.13;66.67;102843.78;5058829;28;20506;-66
2022/04/29 09:03:44;;;;;;;21.27;10.23;;;;;;;11.23;66.21;102838.81;5058484;28;20543;-72
2022/04/29 09:06:10;;;;;;;26.80;10.10;;;;;;;11.24;66.23;102833.31;5069126;28;20071;-66
2022/04/29 09:08:41;;;;;;;20.23;9.52;;;;;;;11.22;66.35;102826.16;5067025;28;20064;-72
2022/04/29 09:11:07;;;;;;;18.95;11.27;;;;;;;11.16;66.67;102823.69;5067618;28;20038;-72
2022/04/29 09:13:37;;;;;;;21.02;10.75;;;;;;;11.21;66.85;102821.66;5068753;28;20404;-66
2022/04/29 09:16:10;;;;;;;28.25;11.38;;;;;;;11.36;66.20;102828.25;5063604;28;20045;-66
2022/04/29 09:18:37;;;;;;;26.83;10.00;;;;;;;11.57;65.49;102837.34;5053632;28;21529;-74
2022/04/29 09:21:05;;;;;;;18.70;8.55;;;;;;;11.55;64.50;102836.50;5056413;28;20052;-72
2022/04/29 09:23:31;;;;;;;18.52;10.10;;;;;;;11.45;65.94;102828.75;5058204;28;20506;-67
2022/04/29 09:26:35;;;;;;;16.95;9.27;;;;;;;11.46;66.01;102838.69;5065994;28;20503;-66
2022/04/29 09:29:29;;;;;;;22.90;10.40;;;;;;;11.79;65.54;102843.56;5075424;28;20043;-73
2022/04/29 09:32:15;;;;;;;24.45;10.60;;;;;;;12.20;64.95;102843.53;5036895;28;20464;-72
2022/04/29 09:35:34;;;;;;;22.77;10.60;;;;;;;12.17;63.86;102846.41;5016116;28;20054;-72
2022/04/29 09:40:46;;;;;;;20.25;10.50;;;;;;;12.14;64.30;102844.72;5068367;28;20488;-67
2022/04/29 09:43:11;;;;;;;21.80;10.20;;;;;;;12.21;62.29;102848.03;5069397;28;20040;-72
2022/04/29 09:45:37;;;;;;;21.58;10.48;;;;;;;12.22;64.39;102845.25;5065312;28;20035;-73
2022/04/29 09:48:08;;;;;;;18.00;10.65;;;;;;;12.24;63.06;102848.78;5060848;28;20044;-66
2022/04/29 09:50:50;;;;;;;25.88;11.52;;;;;;;12.37;64.19;102834.56;5063300;28;20404;-66
2022/04/29 09:53:21;;;;;;;24.13;10.67;;;;;;;12.22;63.28;102834.34;5062172;28;20058;-73
2022/04/29 09:56:06;;;;;;;20.27;10.00;;;;;;;12.14;64.29;102839.25;5068846;28;20044;-67
2022/04/29 09:58:32;;;;;;;23.98;10.63;;;;;;;11.95;63.09;102839.25;5063851;28;20055;-72
2022/04/29 10:00:59;;;;;;;22.23;10.88;;;;;;;11.82;63.79;102843.47;5050127;28;20032;-66
2022/04/29 10:03:25;;;;;;;19.45;10.77;;;;;;;11.74;65.32;102834.72;5063180;28;20033;-72
2022/04/29 10:05:51;;;;;;;22.27;10.13;;;;;;;11.75;64.81;102831.06;5068199;28;20400;-72
2022/04/29 10:08:18;;;;;;;19.08;10.18;;;;;;;11.84;65.06;102825.19;5067827;28;20029;-67
2022/04/29 10:10:46;;;;;;;22.83;10.05;;;;;;;12.05;65.30;102825.19;5066664;28;20445;-73
2022/04/29 10:13:14;;;;;;;22.17;10.32;;;;;;;12.12;63.24;102824.78;5068094;28;20086;-67
2022/04/29 10:15:41;;;;;;;20.80;10.65;;;;;;;12.13;63.31;102821.13;5057410;28;20524;-72
2022/04/29 10:21:38;;;;;;;24.92;10.50;;;;;;;12.20;65.55;102825.31;5073103;28;20400;-73
2022/04/29 10:24:04;;;;;;;20.27;9.77;;;;;;;12.40;64.98;102820.75;5065202;28;20058;-73
2022/04/29 10:26:30;;;;;;;17.15;9.55;;;;;;;12.42;64.12;102821.56;5062281;28;20043;-66
2022/04/29 10:28:56;;;;;;;22.58;9.80;;;;;;;12.28;62.53;102819.50;5063198;28;20033;-72
2022/04/29 10:31:23;;;;;;;22.35;11.55;;;;;;;12.03;62.78;102811.63;5069649;28;20035;-72
2022/04/29 10:33:49;;;;;;;26.60;10.90;;;;;;;11.98;63.84;102809.09;5062156;28;20033;-66
2022/04/29 10:36:16;;;;;;;23.27;10.60;;;;;;;12.05;64.10;102809.69;5071592;28;20032;-68
2022/04/29 10:38:46;;;;;;;22.35;10.13;;;;;;;12.05;63.43;102808.81;5070424;28;20033;-72
2022/04/29 10:41:23;;;;;;;18.50;9.90;;;;;;;12.17;63.73;102814.56;5065304;28;20036;-73
2022/04/29 10:43:52;;;;;;;24.33;10.57;;;;;;;12.29;64.08;102812.19;5067309;28;20434;-67
2022/04/29 10:46:31;;;;;;;21.65;9.35;;;;;;;12.19;63.56;102812.63;5064608;28;20082;-74
2022/04/29 10:49:30;;;;;;;17.75;9.23;;;;;;;12.13;64.11;102809.34;5056495;28;20040;-65
2022/04/29 10:52:28;;;;;;;16.58;9.63;;;;;;;12.18;64.75;102801.81;5072863;28;20044;-66
2022/04/29 10:55:06;;;;;;;20.23;9.53;;;;;;;12.25;63.69;102804.16;5073139;28;20040;-73
2022/04/29 10:57:37;;;;;;;21.55;9.02;;;;;;;12.32;64.65;102802.03;5072250;28;20282;-68
2022/04/29 11:00:10;;;;;;;18.45;9.23;;;;;;;12.28;64.05;102802.25;5059315;28;20064;-67
2022/04/29 11:02:38;;;;;;;21.55;9.75;;;;;;;12.29;66.18;102799.44;5071379;28;20029;-74
2022/04/29 11:05:04;;;;;;;23.63;9.95;;;;;;;12.35;63.94;102790.06;5070852;28;20058;-73
2022/04/29 11:07:39;;;;;;;18.98;9.68;;;;;;;12.55;64.39;102794.56;5070649;28;20040;-66
2022/04/29 11:10:16;;;;;;;17.85;9.10;;;;;;;12.66;61.97;102803.97;5069543;28;20029;-74
2022/04/29 11:13:04;;;;;;;22.00;10.05;;;;;;;12.64;62.29;102802.31;5069959;28;20035;-71
2022/04/29 11:15:49;;;;;;;21.90;9.43;;;;;;;12.62;63.36;102790.56;5063739;28;20072;-73
2022/04/29 11:18:33;;;;;;;17.17;8.48;;;;;;;12.48;61.46;102789.38;5056647;28;20404;-66
2022/04/29 11:21:00;;;;;;;17.60;9.07;;;;;;;12.41;62.86;102782.47;5065465;28;20032;-72
2022/04/29 11:26:12;;;;;;;22.00;9.00;;;;;;;12.55;63.23;102786.38;5067363;28;20041;-68
2022/04/29 11:28:42;;;;;;;15.38;9.07;;;;;;;12.57;62.17;102788.06;5065662;28;20017;-73
2022/04/29 11:31:37;;;;;;;17.65;8.98;;;;;;;12.60;62.08;102787.03;5060628;28;20031;-74
2022/04/29 11:34:09;;;;;;;15.30;8.15;;;;;;;12.87;62.82;102780.19;5066711;28;20042;-73
2022/04/29 11:36:35;;;;;;;26.02;9.32;;;;;;;13.12;61.33;102784.38;5066949;28;20032;-66
2022/04/29 11:39:03;;;;;;;20.23;9.32;;;;;;;13.09;61.83;102779.94;5049197;28;20048;-67
2022/04/29 11:41:29;;;;;;;20.83;8.77;;;;;;;13.08;59.70;102782.75;5069257;28;20036;-72
2022/04/29 11:43:54;;;;;;;15.73;7.72;;;;;;;13.16;59.92;102780.50;5064289;28;20495;-75
2022/04/29 11:46:21;;;;;;;21.58;8.25;;;;;;;13.14;59.76;102780.56;5063559;28;20144;-67
2022/04/29 11:49:05;;;;;;;17.10;8.50;;;;;;;13.25;60.41;102772.75;5065317;28;20028;-73
2022/04/29 11:51:30;;;;;;;20.15;7.47;;;;;;;13.53;58.51;102780.34;5066647;28;20044;-67
2022/04/29 11:54:04;;;;;;;14.73;7.90;;;;;;;13.59;57.83;102776.41;5071336;28;20385;-66
2022/04/29 11:56:41;;;;;;;22.20;8.40;;;;;;;13.88;60.34;102774.78;5066165;28;20415;-74
2022/04/29 11:59:11;;;;;;;13.88;7.88;;;;;;;14.16;55.91;102765.03;5071482;28;20036;-66
2022/04/29 12:01:37;;;;;;;16.67;8.07;;;;;;;14.45;55.93;102766.09;5062951;28;20040;-66
2022/04/29 12:04:04;;;;;;;17.88;7.95;;;;;;;14.75;56.37;102767.06;5059208;28;20054;-73